Time;durP1;ratioP1;P1;durP2;ratioP2;P2;SDS_P1;SDS_P2;PMS_P1;PMS_P2;Temp;Humidity;BMP_temperature;BMP_pressure;BME280_temperature;BME280_humidity;BME280_pressure;Samples;Min_cycle;Max_cycle;Signal;HPM_P1;HPM_P2
2022/09/27 00:01:28;;;;;;;;;2.00;0.67;;;;;13.72;100.00;100099.91;5056542;28;45621;-70
2022/09/27 00:03:57;;;;;;;;;1.00;1.00;;;;;13.66;100.00;100084.94;5056586;28;46370;-71
2022/09/27 00:06:26;;;;;;;;;1.00;1.00;;;;;13.69;100.00;100103.50;5056265;28;45597;-72
2022/09/27 00:08:51;;;;;;;;;0.33;0.33;;;;;13.68;100.00;100098.19;5055917;28;45669;-71
2022/09/27 00:11:20;;;;;;;;;1.67;1.00;;;;;13.68;100.00;100092.88;5056061;28;46794;-70
2022/09/27 00:13:46;;;;;;;;;0.00;0.00;;;;;13.63;100.00;100091.19;5057025;28;45340;-71
2022/09/27 00:16:11;;;;;;;;;1.00;1.00;;;;;13.63;100.00;100091.19;5054661;28;45805;-72
2022/09/27 00:18:36;;;;;;;;;2.33;1.00;;;;;13.62;100.00;100097.38;5055929;28;60903;-71
2022/09/27 00:21:06;;;;;;;;;2.33;2.00;;;;;13.66;100.00;100100.00;5055122;28;55108;-73
2022/09/27 00:23:32;;;;;;;;;1.00;1.00;;;;;13.63;100.00;100096.50;5056883;28;45592;-70
2022/09/27 00:25:58;;;;;;;;;1.67;1.00;;;;;13.74;100.00;100106.06;5056388;28;46361;-71
2022/09/27 00:28:24;;;;;;;;;2.00;1.00;;;;;13.79;100.00;100114.84;5056046;28;45466;-70
2022/09/27 00:30:50;;;;;;;;;2.00;0.00;;;;;13.78;100.00;100107.78;5056861;28;45517;-71
2022/09/27 00:33:15;;;;;;;;;0.67;0.67;;;;;13.81;100.00;100119.25;5038403;28;45733;-72
2022/09/27 00:35:41;;;;;;;;;1.00;1.00;;;;;13.79;100.00;100123.66;5054455;28;59377;-70
2022/09/27 00:38:06;;;;;;;;;3.00;2.00;;;;;13.77;100.00;100122.81;5029530;28;57793;-71
2022/09/27 00:40:31;;;;;;;;;2.00;0.67;;;;;13.74;100.00;100125.53;5053181;28;56310;-71
2022/09/27 00:42:57;;;;;;;;;1.33;1.33;;;;;13.65;100.00;100117.69;5055694;28;53932;-72
2022/09/27 00:45:22;;;;;;;;;1.67;1.00;;;;;13.63;100.00;100122.13;5053997;28;56385;-71
2022/09/27 00:47:55;;;;;;;;;2.67;1.67;;;;;13.65;100.00;100132.72;5055510;28;60047;-71
2022/09/27 00:50:24;;;;;;;;;2.00;1.00;;;;;13.53;100.00;100116.06;5044904;28;45253;-70
2022/09/27 00:52:54;;;;;;;;;3.00;1.00;;;;;13.59;100.00;100131.91;5039331;28;45518;-71
2022/09/27 00:55:24;;;;;;;;;1.00;1.00;;;;;13.49;100.00;100117.00;5053261;28;46420;-71
2022/09/27 00:57:50;;;;;;;;;1.00;1.00;;;;;13.59;100.00;100139.00;5055994;28;45403;-70
2022/09/27 01:00:15;;;;;;;;;2.00;2.00;;;;;13.59;100.00;100137.22;5055403;28;57283;-71
2022/09/27 01:02:49;;;;;;;;;3.33;1.00;;;;;13.61;100.00;100138.06;5056041;28;45666;-70
2022/09/27 01:05:18;;;;;;;;;6.00;1.00;;;;;13.67;100.00;100141.53;5037368;28;45595;-71
2022/09/27 01:07:43;;;;;;;;;2.00;1.00;;;;;13.61;100.00;100134.53;5037467;28;45415;-71
2022/09/27 01:10:09;;;;;;;;;0.00;0.00;;;;;13.66;100.00;100145.09;5053414;28;54896;-70
2022/09/27 01:13:05;;;;;;;;;2.00;0.00;;;;;13.62;100.00;100139.81;5035730;28;45507;-72
2022/09/27 01:16:09;;;;;;;;;2.00;1.00;;;;;13.58;100.00;100143.44;5048499;28;45636;-71
2022/09/27 01:18:45;;;;;;;;;2.00;0.67;;;;;13.55;100.00;100153.19;5010265;28;45408;-71
2022/09/27 01:21:26;;;;;;;;;2.00;2.00;;;;;13.55;100.00;100151.41;5038133;28;45466;-71
2022/09/27 01:24:19;;;;;;;;;5.00;1.00;;;;;13.49;100.00;100138.22;5053198;28;45636;-72
2022/09/27 01:27:22;;;;;;;;;2.00;0.00;;;;;13.53;100.00;100155.88;5054920;28;46632;-71
2022/09/27 01:30:10;;;;;;;;;2.33;1.00;;;;;13.45;100.00;100144.44;5055057;28;45602;-71
2022/09/27 01:33:11;;;;;;;;;2.33;1.00;;;;;13.47;100.00;100153.25;5045518;28;47167;-71
2022/09/27 01:35:46;;;;;;;;;1.67;1.00;;;;;13.43;100.00;100156.00;5014299;28;45508;-71
2022/09/27 01:38:17;;;;;;;;;1.67;1.00;;;;;13.38;100.00;100153.38;5037064;28;46379;-71
2022/09/27 01:41:06;;;;;;;;;2.00;1.00;;;;;13.28;100.00;100151.72;5055804;28;45372;-70
2022/09/27 01:43:39;;;;;;;;;2.67;1.00;;;;;13.29;100.00;100149.06;5033555;28;45493;-71
2022/09/27 01:46:10;;;;;;;;;1.00;1.00;;;;;13.27;100.00;100149.97;5031458;28;45320;-71
2022/09/27 01:48:40;;;;;;;;;1.67;1.00;;;;;13.18;100.00;100142.97;5053088;28;45388;-71
2022/09/27 01:51:10;;;;;;;;;0.00;0.00;;;;;13.16;100.00;100147.41;5053824;28;45588;-70
2022/09/27 01:53:38;;;;;;;;;2.00;0.33;;;;;13.19;100.00;100150.00;5054274;28;45528;-72
2022/09/27 01:56:10;;;;;;;;;0.00;0.00;;;;;13.17;100.00;100153.59;5038631;28;45527;-71
2022/09/27 01:58:49;;;;;;;;;3.33;0.00;;;;;13.19;100.00;100162.38;5037073;28;45901;-70
2022/09/27 02:01:15;;;;;;;;;2.67;1.00;;;;;13.14;100.00;100143.88;5057327;28;45585;-73
2022/09/27 02:03:45;;;;;;;;;0.33;0.33;;;;;13.20;100.00;100159.72;5057900;28;49438;-71
2022/09/27 02:06:14;;;;;;;;;0.33;0.33;;;;;13.22;100.00;100154.44;5058220;28;45502;-72
2022/09/27 02:08:52;;;;;;;;;2.00;0.00;;;;;13.20;100.00;100167.66;5058589;28;45435;-71
2022/09/27 02:11:18;;;;;;;;;2.67;1.00;;;;;13.19;100.00;100157.09;5040678;28;45250;-70
2022/09/27 02:13:47;;;;;;;;;2.67;0.67;;;;;13.18;100.00;100155.34;5058788;28;45388;-71
2022/09/27 02:16:23;;;;;;;;;1.00;0.67;;;;;13.17;100.00;100158.88;5057426;28;45305;-70
2022/09/27 02:19:12;;;;;;;;;2.00;1.00;;;;;13.13;100.00;100151.84;5057447;28;46114;-70
2022/09/27 02:21:55;;;;;;;;;0.67;0.00;;;;;13.06;100.00;100141.31;5057820;28;45351;-71
2022/09/27 02:24:26;;;;;;;;;1.00;0.00;;;;;13.11;100.00;100142.16;5058749;28;45451;-71
2022/09/27 02:27:02;;;;;;;;;0.00;0.00;;;;;13.12;100.00;100148.34;5056914;28;47209;-71
2022/09/27 02:29:34;;;;;;;;;1.33;0.00;;;;;13.11;100.00;100139.50;5057921;28;45814;-71
2022/09/27 02:31:59;;;;;;;;;2.00;1.00;;;;;13.15;100.00;100145.63;5058546;28;45454;-71
2022/09/27 02:34:28;;;;;;;;;0.00;0.00;;;;;13.19;100.00;100149.13;5058530;28;45734;-72
2022/09/27 02:36:53;;;;;;;;;3.33;1.00;;;;;13.17;100.00;100130.59;5039802;28;45237;-71
2022/09/27 02:39:19;;;;;;;;;1.00;1.00;;;;;13.25;100.00;100147.31;5036511;28;46371;-71
2022/09/27 02:41:45;;;;;;;;;2.00;0.00;;;;;13.20;100.00;100127.91;5037237;28;45394;-70
2022/09/27 02:44:12;;;;;;;;;0.00;0.00;;;;;13.33;100.00;100147.25;5052314;28;55539;-70
2022/09/27 02:47:01;;;;;;;;;1.33;0.00;;;;;13.30;100.00;100140.19;5038783;28;45460;-71
2022/09/27 02:49:42;;;;;;;;;0.00;0.00;;;;;13.36;100.00;100149.84;5056594;28;46010;-72
2022/09/27 02:52:25;;;;;;;;;1.33;0.00;;;;;13.37;100.00;100146.34;5057525;28;45289;-70
2022/09/27 02:54:56;;;;;;;;;2.00;1.00;;;;;13.39;100.00;100151.59;5057563;28;45380;-72
2022/09/27 02:57:27;;;;;;;;;0.00;0.00;;;;;13.39;100.00;100149.84;5057956;28;45328;-71
2022/09/27 03:00:21;;;;;;;;;1.00;1.00;;;;;13.34;100.00;100133.97;5057459;28;45346;-71
2022/09/27 03:02:55;;;;;;;;;0.00;0.00;;;;;13.37;100.00;100148.97;5057192;28;45256;-71
2022/09/27 03:05:24;;;;;;;;;3.00;0.00;;;;;13.39;100.00;100148.97;5057128;28;46796;-71
2022/09/27 03:07:49;;;;;;;;;0.00;0.00;;;;;13.36;100.00;100133.94;5043139;28;45512;-71
2022/09/27 03:10:21;;;;;;;;;1.00;1.00;;;;;13.46;100.00;100156.81;5051900;28;45525;-70
2022/09/27 03:12:46;;;;;;;;;0.00;0.00;;;;;13.44;100.00;100150.66;5057018;28;45245;-71
2022/09/27 03:15:12;;;;;;;;;2.00;1.00;;;;;13.51;100.00;100152.34;5054948;28;45198;-71
2022/09/27 03:17:38;;;;;;;;;0.00;0.00;;;;;13.54;100.00;100149.66;5057801;28;45633;-71
2022/09/27 03:20:04;;;;;;;;;4.00;1.00;;;;;13.53;100.00;100141.69;5056879;28;45555;-72
2022/09/27 03:22:29;;;;;;;;;2.00;0.00;;;;;13.50;100.00;100136.44;5056916;28;45702;-71
2022/09/27 03:24:55;;;;;;;;;0.00;0.00;;;;;13.54;100.00;100149.66;5056384;28;56153;-72
2022/09/27 03:27:20;;;;;;;;;2.00;1.00;;;;;13.52;100.00;100155.84;5057829;28;45978;-72
2022/09/27 03:29:46;;;;;;;;;0.00;0.00;;;;;13.48;100.00;100149.72;5056413;28;46302;-71
2022/09/27 03:32:11;;;;;;;;;0.67;0.67;;;;;13.45;100.00;100141.81;5056917;28;59224;-71
2022/09/27 03:34:37;;;;;;;;;0.00;0.00;;;;;13.38;100.00;100148.09;5056679;28;52983;-70
2022/09/27 03:37:02;;;;;;;;;1.00;1.00;;;;;13.35;100.00;100141.03;5037497;28;45682;-71
2022/09/27 03:39:27;;;;;;;;;3.33;0.67;;;;;13.39;100.00;100141.88;5056878;28;46533;-71
2022/09/27 03:41:53;;;;;;;;;0.00;0.00;;;;;13.39;100.00;100148.97;5053003;28;45377;-70
2022/09/27 03:44:18;;;;;;;;;1.67;0.00;;;;;13.31;100.00;100130.47;5027481;28;54706;-70
2022/09/27 03:46:43;;;;;;;;;1.33;0.00;;;;;13.35;100.00;100137.50;5051112;28;54018;-72
2022/09/27 03:49:09;;;;;;;;;2.00;0.67;;;;;13.38;100.00;100148.09;5055411;28;66260;-70
2022/09/27 03:51:34;;;;;;;;;2.00;1.00;;;;;13.33;100.00;100132.22;5048601;28;61302;-70
2022/09/27 03:54:00;;;;;;;;;1.00;0.00;;;;;13.34;100.00;100144.56;5033290;28;45513;-71
2022/09/27 03:56:25;;;;;;;;;1.00;1.00;;;;;13.29;100.00;100127.84;5048190;28;53875;-72
2022/09/27 03:58:50;;;;;;;;;0.00;0.00;;;;;13.29;100.00;100132.28;5056823;28;46711;-71
2022/09/27 04:01:16;;;;;;;;;0.00;0.00;;;;;13.30;100.00;100134.91;5054985;28;45552;-71
2022/09/27 04:03:41;;;;;;;;;2.00;1.00;;;;;13.30;100.00;100140.19;5054842;28;52737;-71
2022/09/27 04:06:07;;;;;;;;;4.33;0.00;;;;;13.30;100.00;100134.91;5056699;28;46741;-70
2022/09/27 04:08:32;;;;;;;;;1.67;0.00;;;;;13.27;100.00;100134.06;5056432;28;46445;-71
2022/09/27 04:10:58;;;;;;;;;0.00;0.00;;;;;13.30;100.00;100134.91;5022022;28;45430;-70
2022/09/27 04:13:23;;;;;;;;;1.00;1.00;;;;;13.31;100.00;100138.41;5054977;28;45339;-71
2022/09/27 04:15:48;;;;;;;;;0.00;0.00;;;;;13.25;100.00;100125.25;5056323;28;45269;-71
2022/09/27 04:18:14;;;;;;;;;2.00;1.00;;;;;13.24;100.00;100126.13;5034512;28;60543;-71
2022/09/27 04:20:39;;;;;;;;;1.67;0.00;;;;;13.25;100.00;100122.59;5047028;28;45280;-70
2022/09/27 04:23:04;;;;;;;;;1.00;0.00;;;;;13.21;100.00;100111.16;5055876;28;52017;-70
2022/09/27 04:25:31;;;;;;;;;0.00;0.00;;;;;13.20;100.00;100114.66;5056022;28;47391;-72
2022/09/27 04:27:57;;;;;;;;;0.00;0.00;;;;;13.27;100.00;100119.03;5037118;28;45720;-70
2022/09/27 04:30:25;;;;;;;;;0.00;0.00;;;;;13.22;100.00;100114.69;5056362;28;45894;-70
2022/09/27 04:32:50;;;;;;;;;2.00;1.00;;;;;13.11;100.00;100107.69;5056213;28;45523;-72
2022/09/27 04:38:00;;;;;;;;;0.00;0.00;;;;;13.20;100.00;100119.94;5055778;28;45311;-70
2022/09/27 04:40:25;;;;;;;;;1.00;1.00;;;;;13.18;100.00;100107.63;5049346;28;45305;-69
2022/09/27 04:42:50;;;;;;;;;1.00;0.00;;;;;13.22;100.00;100120.88;5048191;28;45277;-71
2022/09/27 04:45:17;;;;;;;;;0.00;0.00;;;;;13.19;100.00;100102.28;5056142;28;49445;-71
2022/09/27 04:47:47;;;;;;;;;0.00;0.00;;;;;13.20;100.00;100100.53;5056105;28;46417;-70
2022/09/27 04:50:13;;;;;;;;;0.67;0.67;;;;;13.26;100.00;100119.94;5052235;28;45320;-71
2022/09/27 04:52:39;;;;;;;;;0.00;0.00;;;;;13.30;100.00;100124.28;5055948;28;45561;-71
2022/09/27 04:55:06;;;;;;;;;0.00;0.00;;;;;13.31;100.00;100120.75;5055798;28;45530;-71
2022/09/27 04:57:31;;;;;;;;;1.33;0.00;;;;;13.34;100.00;100128.66;5056033;28;46298;-70
2022/09/27 04:59:59;;;;;;;;;1.00;1.00;;;;;13.38;100.00;100126.88;5056680;28;45354;-72
2022/09/27 05:02:25;;;;;;;;;3.33;0.00;;;;;13.35;100.00;100129.53;5057973;28;45288;-70
2022/09/27 05:04:51;;;;;;;;;0.00;0.00;;;;;13.34;100.00;100147.22;5046007;28;45515;-72
2022/09/27 05:07:16;;;;;;;;;1.33;0.33;;;;;13.42;100.00;100146.25;5047399;28;46379;-71
2022/09/27 05:09:42;;;;;;;;;0.67;0.00;;;;;13.36;100.00;100132.16;5050816;28;58139;-70
2022/09/27 05:12:07;;;;;;;;;0.00;0.00;;;;;13.32;100.00;100135.78;5047465;28;45410;-71
2022/09/27 05:14:33;;;;;;;;;2.00;0.00;;;;;13.22;100.00;100115.56;5048176;28;45537;-70
2022/09/27 05:16:58;;;;;;;;;0.00;0.00;;;;;13.12;100.00;100113.88;5033315;28;45963;-70
2022/09/27 05:19:24;;;;;;;;;2.00;0.00;;;;;13.12;100.00;100119.19;5025462;28;45391;-70
2022/09/27 05:21:49;;;;;;;;;2.33;0.00;;;;;13.05;100.00;100126.31;5030108;28;45482;-70
2022/09/27 05:24:15;;;;;;;;;0.33;0.33;;;;;12.89;100.00;100094.66;5047953;28;45557;-71
2022/09/27 05:26:40;;;;;;;;;1.67;0.00;;;;;12.88;100.00;100109.69;5048993;28;46195;-70
2022/09/27 05:29:06;;;;;;;;;2.00;0.00;;;;;12.82;100.00;100112.41;5049830;28;45209;-70
2022/09/27 05:31:31;;;;;;;;;2.00;0.00;;;;;12.78;100.00;100111.59;5047836;28;45658;-70
2022/09/27 05:33:57;;;;;;;;;2.00;0.67;;;;;12.81;100.00;100134.50;5022120;28;45626;-69
2022/09/27 05:36:22;;;;;;;;;0.00;0.00;;;;;12.81;100.00;100148.63;5168807;22;45772;-70
2022/09/27 05:38:48;;;;;;;;;1.33;1.33;;;;;12.84;100.00;100148.59;5047000;28;45415;-69
2022/09/27 05:41:14;;;;;;;;;1.00;1.00;;;;;12.81;100.00;100129.19;5032363;28;48897;-69
2022/09/27 05:43:40;;;;;;;;;2.00;0.33;;;;;12.83;100.00;100125.63;5020183;28;45551;-70
2022/09/27 05:46:06;;;;;;;;;1.00;1.00;;;;;12.91;100.00;100124.69;5034788;28;47196;-69
2022/09/27 05:48:31;;;;;;;;;1.00;1.00;;;;;12.90;100.00;100120.28;5033991;28;45425;-71
2022/09/27 05:50:56;;;;;;;;;0.00;0.00;;;;;12.94;100.00;100116.69;5035522;28;45451;-70
2022/09/27 05:53:22;;;;;;;;;5.00;0.00;;;;;13.03;100.00;100113.97;5037531;28;53080;-69
2022/09/27 05:55:48;;;;;;;;;4.00;1.00;;;;;13.06;100.00;100117.47;5034681;28;46282;-69
2022/09/27 05:58:15;;;;;;;;;0.00;0.00;;;;;13.01;100.00;100100.72;5033090;28;45501;-70
2022/09/27 06:00:42;;;;;;;;;1.00;1.00;;;;;13.08;100.00;100101.53;5029334;28;45615;-69
2022/09/27 06:03:08;;;;;;;;;1.67;0.00;;;;;13.06;100.00;100098.03;5033617;28;45612;-71
2022/09/27 06:05:35;;;;;;;;;2.00;2.00;;;;;13.16;100.00;100109.44;5029334;28;47474;-69
2022/09/27 06:08:04;;;;;;;;;1.00;1.00;;;;;13.14;100.00;100120.03;5034498;28;45421;-69
2022/09/27 06:10:30;;;;;;;;;1.00;1.00;;;;;13.17;100.00;100119.13;5035679;28;45574;-74
2022/09/27 06:13:04;;;;;;;;;3.00;1.00;;;;;13.17;100.00;100117.34;5036285;28;45513;-69
2022/09/27 06:15:31;;;;;;;;;1.00;1.00;;;;;13.17;100.00;100113.81;5033610;28;45895;-69
2022/09/27 06:18:11;;;;;;;;;0.00;0.00;;;;;13.24;100.00;100127.00;5037114;28;45415;-70
2022/09/27 06:20:38;;;;;;;;;2.00;0.00;;;;;13.26;100.00;100122.59;5038464;28;45354;-70
2022/09/27 06:23:11;;;;;;;;;0.00;0.00;;;;;13.22;100.00;100120.88;5034183;28;45556;-69
2022/09/27 06:25:37;;;;;;;;;0.33;0.00;;;;;13.13;100.00;100105.03;5036446;28;45912;-70
2022/09/27 06:28:03;;;;;;;;;0.00;0.00;;;;;13.24;100.00;100134.09;5032655;28;45549;-72
2022/09/27 06:30:29;;;;;;;;;2.67;0.67;;;;;13.27;100.00;100124.34;5036017;28;45637;-72
2022/09/27 06:32:56;;;;;;;;;2.00;0.00;;;;;13.32;100.00;100126.94;5032063;28;45429;-73
2022/09/27 06:35:23;;;;;;;;;1.67;0.67;;;;;13.33;100.00;100126.03;5033889;28;47522;-74
2022/09/27 06:37:49;;;;;;;;;1.33;1.00;;;;;13.39;100.00;100128.63;5033017;28;45455;-73
2022/09/27 06:40:15;;;;;;;;;1.00;1.00;;;;;13.41;100.00;100118.00;5039033;28;45432;-72
2022/09/27 06:42:40;;;;;;;;;1.00;1.00;;;;;13.44;100.00;100120.63;5034237;28;45490;-71
2022/09/27 06:45:06;;;;;;;;;1.33;1.33;;;;;13.47;100.00;100116.13;5032660;28;57160;-71
2022/09/27 06:47:37;;;;;;;;;3.33;1.00;;;;;13.49;100.00;100117.00;5033802;28;46002;-71
2022/09/27 06:50:05;;;;;;;;;0.00;0.00;;;;;13.51;100.00;100116.97;5034393;28;45560;-71
2022/09/27 06:52:31;;;;;;;;;0.67;0.00;;;;;13.56;100.00;100123.09;5033695;28;45569;-72
2022/09/27 06:54:57;;;;;;;;;2.00;0.33;;;;;13.58;100.00;100131.91;5033040;28;46091;-71
2022/09/27 07:00:22;;;;;;;;;1.00;1.00;;;;;13.66;100.00;100124.75;5033160;28;45515;-72
2022/09/27 07:02:49;;;;;;;;;3.00;0.00;;;;;13.67;100.00;100126.50;5039874;28;45573;-70
2022/09/27 07:05:15;;;;;;;;;1.00;1.00;;;;;13.65;100.00;100127.44;5034143;28;46491;-71
2022/09/27 07:07:42;;;;;;;;;2.67;1.00;;;;;13.70;100.00;100138.88;5031588;28;45449;-72
2022/09/27 07:10:07;;;;;;;;;1.00;1.00;;;;;13.72;100.00;100137.94;5035150;28;45509;-72
2022/09/27 07:12:35;;;;;;;;;1.33;0.00;;;;;13.77;100.00;100140.53;5036055;28;45282;-72
2022/09/27 07:15:00;;;;;;;;;1.00;1.00;;;;;13.80;100.00;100143.16;5036691;28;47416;-70
2022/09/27 07:17:26;;;;;;;;;0.00;0.00;;;;;13.85;100.00;100155.47;5034783;28;45489;-71
2022/09/27 07:19:52;;;;;;;;;4.00;1.00;;;;;13.87;100.00;100153.66;5035205;28;45685;-72
2022/09/27 07:22:18;;;;;;;;;0.00;0.00;;;;;13.97;100.00;100159.72;5035896;28;45242;-70
2022/09/27 07:24:43;;;;;;;;;1.00;1.00;;;;;14.01;100.00;100157.88;5035179;28;45593;-71
2022/09/27 07:27:09;;;;;;;;;1.00;1.00;;;;;14.08;100.00;100172.84;5034038;28;56970;-72
2022/09/27 07:29:34;;;;;;;;;2.33;0.00;;;;;14.06;100.00;100159.59;5035604;28;45486;-71
2022/09/27 07:32:00;;;;;;;;;0.00;0.00;;;;;14.09;100.00;100161.31;5032819;28;50201;-73
2022/09/27 07:34:26;;;;;;;;;0.67;0.67;;;;;14.14;100.00;100176.28;5033781;28;47324;-74
2022/09/27 07:36:53;;;;;;;;;1.33;1.00;;;;;14.14;100.00;100170.97;5033940;28;45571;-73
2022/09/27 07:39:20;;;;;;;;;1.00;1.00;;;;;14.18;100.00;100169.16;5034791;28;47049;-75
2022/09/27 07:41:46;;;;;;;;;2.33;0.00;;;;;14.18;100.00;100174.47;5035081;28;45343;-76
2022/09/27 07:44:14;;;;;;;;;2.67;0.00;;;;;14.25;100.00;100176.13;5037858;28;46859;-70
2022/09/27 07:46:40;;;;;;;;;3.67;2.00;;;;;14.28;100.00;100161.94;5035035;28;45594;-72
2022/09/27 07:49:05;;;;;;;;;0.00;0.00;;;;;14.18;100.00;100147.91;5037683;28;61676;-69
2022/09/27 07:51:31;;;;;;;;;0.00;0.00;;;;;14.37;100.00;100193.66;5033206;28;45457;-68
2022/09/27 07:53:56;;;;;;;;;1.00;1.00;;;;;14.38;100.00;100192.75;5032452;28;46222;-68
2022/09/27 07:56:21;;;;;;;;;1.00;1.00;;;;;14.39;100.00;100182.13;5026331;28;60532;-72
2022/09/27 07:58:47;;;;;;;;;2.00;1.00;;;;;14.45;100.00;100182.94;5029949;28;57161;-71
2022/09/27 08:01:12;;;;;;;;;3.00;1.00;;;;;14.53;100.00;100194.34;5032938;28;45549;-71
2022/09/27 08:03:39;;;;;;;;;3.00;0.33;;;;;14.55;100.00;100192.56;5033240;28;46454;-73
2022/09/27 08:06:04;;;;;;;;;1.00;1.00;;;;;14.53;100.00;100191.69;5029954;28;45543;-70
2022/09/27 08:08:30;;;;;;;;;0.67;0.33;;;;;14.49;100.00;100185.56;5029038;28;45587;-70
2022/09/27 08:10:55;;;;;;;;;3.67;1.00;;;;;14.55;100.00;100203.19;5029885;28;51670;-71
2022/09/27 08:13:21;;;;;;;;;2.67;1.00;;;;;14.55;100.00;100200.53;5032092;28;45476;-70
2022/09/27 08:15:47;;;;;;;;;0.00;0.00;;;;;14.53;100.00;100208.50;5034790;28;45607;-70
2022/09/27 08:18:13;;;;;;;;;0.00;0.00;;;;;14.54;100.00;100196.09;5034404;28;45379;-70
2022/09/27 08:20:39;;;;;;;;;0.00;0.00;;;;;14.54;100.00;100202.31;5035299;28;45206;-71
2022/09/27 08:23:04;;;;;;;;;1.33;1.00;;;;;14.56;100.00;100197.84;5034981;28;45654;-71
2022/09/27 08:25:30;;;;;;;;;1.00;1.00;;;;;14.60;100.00;100188.91;5038273;28;45485;-71
2022/09/27 08:27:57;;;;;;;;;1.33;0.67;;;;;14.74;100.00;100206.41;5032274;28;45411;-71
2022/09/27 08:30:23;;;;;;;;;0.33;0.00;;;;;14.80;100.00;100211.63;5030169;28;45414;-72
2022/09/27 08:32:48;;;;;;;;;0.00;0.00;;;;;14.81;100.00;100211.63;5036029;28;46385;-72
2022/09/27 08:35:14;;;;;;;;;0.00;0.00;;;;;14.79;100.00;100218.72;5032424;28;45549;-72
2022/09/27 08:37:40;;;;;;;;;0.00;0.00;;;;;14.87;100.00;100218.63;5032700;28;45543;-72
2022/09/27 08:40:06;;;;;;;;;3.33;0.00;;;;;14.80;100.00;100201.88;5033907;28;45289;-71
2022/09/27 08:42:48;;;;;;;;;0.00;0.00;;;;;15.04;100.00;100236.94;5049968;28;46086;-70
2022/09/27 08:45:21;;;;;;;;;3.67;0.00;;;;;15.07;100.00;100228.88;5029864;28;45429;-70
2022/09/27 08:47:49;;;;;;;;;1.33;1.33;;;;;15.04;100.00;100227.19;5033821;28;45572;-71
2022/09/27 08:50:33;;;;;;;;;2.33;1.00;;;;;15.03;100.00;100224.56;5034371;28;45636;-70
2022/09/27 08:53:17;;;;;;;;;4.00;1.00;;;;;15.07;100.00;100221.78;5029468;28;45856;-70
2022/09/27 08:55:48;;;;;;;;;0.33;0.00;;;;;15.03;100.00;100213.91;5031381;28;45365;-71
2022/09/27 08:58:27;;;;;;;;;1.00;1.00;;;;;14.99;100.00;100212.22;5044599;28;45626;-72
2022/09/27 09:00:54;;;;;;;;;3.33;1.00;;;;;14.99;100.00;100218.41;5033053;28;45558;-70
2022/09/27 09:03:24;;;;;;;;;0.00;0.00;;;;;15.01;100.00;100211.25;5032222;28;46549;-70
2022/09/27 09:06:02;;;;;;;;;0.67;0.67;;;;;14.99;100.00;100223.72;5026260;28;45340;-71
2022/09/27 09:08:49;;;;;;;;;0.67;0.67;;;;;14.96;100.00;100245.03;5031534;28;45388;-70
2022/09/27 09:14:51;;;;;;;;;0.00;0.00;;;;;15.03;100.00;100232.53;5029072;28;45458;-70
2022/09/27 09:17:16;;;;;;;;;2.00;0.00;;;;;15.08;100.00;100238.66;5046628;28;45572;-72
2022/09/27 09:19:56;;;;;;;;;0.00;0.00;;;;;15.12;100.00;100233.22;5030804;28;45613;-69
2022/09/27 09:22:37;;;;;;;;;1.00;1.00;;;;;15.13;100.00;100227.03;5033430;28;45570;-69
2022/09/27 09:25:21;;;;;;;;;2.33;1.00;;;;;15.21;100.00;100229.53;5029462;28;45791;-70
2022/09/27 09:27:46;;;;;;;;;1.33;1.00;;;;;15.24;100.00;100212.66;5042364;28;45561;-70
2022/09/27 09:30:54;;;;;;;;;1.00;1.00;;;;;15.23;100.00;100206.44;5028933;28;45606;-72
2022/09/27 09:33:29;;;;;;;;;3.00;0.00;;;;;15.19;100.00;100213.63;5029796;28;45543;-71
2022/09/27 09:36:00;;;;;;;;;1.00;1.00;;;;;15.07;100.00;100178.38;5033022;28;46064;-70
2022/09/27 09:38:36;;;;;;;;;2.00;2.00;;;;;15.27;100.00;100183.34;5032281;28;45829;-70
2022/09/27 09:41:06;;;;;;;;;1.00;0.00;;;;;15.32;100.00;100190.31;5033257;28;45442;-70
2022/09/27 09:43:36;;;;;;;;;0.00;0.00;;;;;15.39;100.00;100183.09;5027674;28;45500;-69
2022/09/27 09:46:34;;;;;;;;;1.00;1.00;;;;;15.48;100.00;100185.59;5033039;28;47744;-69
2022/09/27 09:49:21;;;;;;;;;1.33;0.00;;;;;15.72;100.00;100176.28;5029442;28;45504;-69
2022/09/27 09:51:57;;;;;;;;;0.00;0.00;;;;;15.90;100.00;100185.66;5029559;28;45394;-71
2022/09/27 09:54:30;;;;;;;;;0.00;0.00;;;;;16.02;100.00;100180.06;5045743;28;45554;-70
2022/09/27 09:57:14;;;;;;;;;3.00;0.00;;;;;16.15;100.00;100176.25;5031889;28;46974;-70
2022/09/27 09:59:44;;;;;;;;;0.00;0.00;;;;;16.26;100.00;100172.47;5032401;28;45608;-70
2022/09/27 10:02:19;;;;;;;;;0.00;0.00;;;;;16.27;100.00;100168.88;5032085;28;45466;-72
2022/09/27 10:04:44;;;;;;;;;0.33;0.00;;;;;16.29;100.00;100159.03;5033451;28;45557;-70
2022/09/27 10:07:10;;;;;;;;;0.00;0.00;;;;;16.30;100.00;100155.47;5031712;28;65100;-72
2022/09/27 10:09:36;;;;;;;;;1.33;0.00;;;;;16.26;100.00;100156.47;5032310;28;45427;-71
2022/09/27 10:12:02;;;;;;;;;0.00;0.00;;;;;16.21;100.00;100151.25;5033636;28;45569;-71
2022/09/27 10:14:27;;;;;;;;;0.00;0.00;;;;;16.16;100.00;100146.03;5049239;28;45462;-69
2022/09/27 10:17:02;;;;;;;;;0.00;0.00;;;;;16.07;100.00;100130.25;5033865;28;45621;-70
2022/09/27 10:19:30;;;;;;;;;0.00;0.00;;;;;16.24;100.00;100135.19;5033087;28;45468;-70
2022/09/27 10:22:02;;;;;;;;;1.00;0.00;;;;;16.37;100.00;100143.78;5037217;28;46867;-70
2022/09/27 10:24:27;;;;;;;;;1.00;0.00;;;;;16.40;100.00;100146.34;5037612;28;45463;-70
2022/09/27 10:26:57;;;;;;;;;0.00;0.00;;;;;16.46;100.00;100148.91;5034664;28;46560;-70
2022/09/27 10:29:23;;;;;;;;;1.00;0.00;;;;;16.43;100.00;100141.84;5030196;28;45542;-70
2022/09/27 10:31:50;;;;;;;;;0.00;0.00;;;;;16.39;100.00;100139.28;5033801;28;45662;-70
2022/09/27 10:34:17;;;;;;;;;2.33;0.00;;;;;16.42;100.00;100158.75;5045923;28;45671;-70
2022/09/27 10:36:42;;;;;;;;;0.00;0.00;;;;;16.33;100.00;100158.94;5034236;28;45679;-70
2022/09/27 10:39:20;;;;;;;;;0.00;0.00;;;;;16.32;100.00;100154.53;5032641;28;60821;-70
2022/09/27 10:41:45;;;;;;;;;0.00;0.00;;;;;16.20;100.00;100155.69;5030233;28;45618;-69
2022/09/27 10:44:31;;;;;;;;;1.67;0.00;;;;;16.20;100.00;100165.50;5036538;28;56910;-70
2022/09/27 10:47:07;;;;;;;;;1.67;0.00;;;;;16.14;100.00;100166.50;5051073;28;47966;-71
2022/09/27 10:49:35;;;;;;;;;0.00;0.00;;;;;16.13;100.00;100161.19;5050157;28;45478;-70
2022/09/27 10:52:04;;;;;;;;;0.00;0.00;;;;;16.09;100.00;100170.19;5037059;28;45407;-69
2022/09/27 10:54:34;;;;;;;;;0.00;0.00;;;;;16.02;100.00;100160.56;5036457;28;45501;-71
2022/09/27 10:57:14;;;;;;;;;3.33;0.00;;;;;15.98;100.00;100150.00;5034830;28;46494;-69
2022/09/27 10:59:50;;;;;;;;;1.33;0.00;;;;;16.05;100.00;100164.03;5027422;28;45427;-72
2022/09/27 11:02:27;;;;;;;;;2.00;0.00;;;;;16.05;100.00;100158.72;5049747;28;45548;-71
2022/09/27 11:05:13;;;;;;;;;0.00;0.00;;;;;16.05;100.00;100149.84;5033222;28;45530;-69
2022/09/27 11:08:14;;;;;;;;;0.00;0.00;;;;;16.06;100.00;100152.47;5034217;28;47211;-70
2022/09/27 11:10:40;;;;;;;;;0.00;0.00;;;;;16.09;100.00;100154.19;5034825;28;45607;-70
2022/09/27 11:13:17;;;;;;;;;2.67;1.00;;;;;16.07;100.00;100138.22;5032129;28;45384;-69
2022/09/27 11:16:23;;;;;;;;;1.00;0.00;;;;;16.22;100.00;100151.19;5035939;28;45654;-70
2022/09/27 11:19:14;;;;;;;;;2.00;0.67;;;;;16.21;100.00;100149.47;5033476;28;46809;-71
2022/09/27 11:21:58;;;;;;;;;1.00;1.00;;;;;16.21;100.00;100151.25;5035545;28;45644;-69
2022/09/27 11:24:47;;;;;;;;;1.00;1.00;;;;;16.15;100.00;100154.06;5030877;28;45311;-70
2022/09/27 11:27:34;;;;;;;;;2.00;1.00;;;;;16.07;100.00;100153.34;5027787;28;45424;-69
2022/09/27 11:30:04;;;;;;;;;0.00;0.00;;;;;16.01;100.00;100149.03;5046690;28;46046;-71
2022/09/27 11:32:48;;;;;;;;;2.00;0.00;;;;;16.07;100.00;100153.34;5032327;28;45411;-69
2022/09/27 11:35:25;;;;;;;;;0.33;0.33;;;;;16.07;100.00;100148.00;5034720;28;45450;-69
2022/09/27 11:38:26;;;;;;;;;0.00;0.00;;;;;16.11;100.00;100150.56;5031754;28;45682;-69
2022/09/27 11:41:02;;;;;;;;;1.00;1.00;;;;;16.17;100.00;100158.41;5035043;28;47415;-70